sensor_id;sensor_type;location;lat;lon;timestamp;P1;durP1;ratioP1;P2;durP2;ratioP2
64029;SDS011;50277;52.064;4.492;2022-08-21T00:01:24;9.23;;;2.65;;
64029;SDS011;50277;52.064;4.492;2022-08-21T00:03:51;12.55;;;2.67;;
64029;SDS011;50277;52.064;4.492;2022-08-21T00:06:17;8.73;;;2.80;;
64029;SDS011;50277;52.064;4.492;2022-08-21T00:08:42;8.30;;;2.58;;
64029;SDS011;50277;52.064;4.492;2022-08-21T00:11:08;5.53;;;2.50;;
64029;SDS011;50277;52.064;4.492;2022-08-21T00:13:34;7.93;;;2.70;;
64029;SDS011;50277;52.064;4.492;2022-08-21T00:15:59;6.85;;;2.90;;
64029;SDS011;50277;52.064;4.492;2022-08-21T00:18:25;7.25;;;2.30;;
64029;SDS011;50277;52.064;4.492;2022-08-21T00:20:51;15.80;;;2.95;;
64029;SDS011;50277;52.064;4.492;2022-08-21T00:23:17;8.10;;;3.00;;
64029;SDS011;50277;52.064;4.492;2022-08-21T00:25:42;6.78;;;2.58;;
64029;SDS011;50277;52.064;4.492;2022-08-21T00:28:08;10.75;;;2.90;;
64029;SDS011;50277;52.064;4.492;2022-08-21T00:30:33;8.20;;;2.90;;
64029;SDS011;50277;52.064;4.492;2022-08-21T00:32:59;7.18;;;2.85;;
64029;SDS011;50277;52.064;4.492;2022-08-21T00:35:30;7.35;;;2.75;;
64029;SDS011;50277;52.064;4.492;2022-08-21T00:37:57;9.15;;;2.60;;
64029;SDS011;50277;52.064;4.492;2022-08-21T00:40:28;8.27;;;3.05;;
64029;SDS011;50277;52.064;4.492;2022-08-21T00:42:57;10.60;;;2.63;;
64029;SDS011;50277;52.064;4.492;2022-08-21T00:45:23;8.55;;;2.88;;
64029;SDS011;50277;52.064;4.492;2022-08-21T00:47:50;9.48;;;2.65;;
64029;SDS011;50277;52.064;4.492;2022-08-21T00:50:16;8.93;;;2.80;;
64029;SDS011;50277;52.064;4.492;2022-08-21T00:52:42;8.35;;;3.17;;
64029;SDS011;50277;52.064;4.492;2022-08-21T00:55:09;9.18;;;2.67;;
64029;SDS011;50277;52.064;4.492;2022-08-21T00:57:40;8.43;;;2.80;;
64029;SDS011;50277;52.064;4.492;2022-08-21T01:00:10;4.65;;;2.65;;
64029;SDS011;50277;52.064;4.492;2022-08-21T01:02:37;10.23;;;3.25;;
64029;SDS011;50277;52.064;4.492;2022-08-21T01:05:03;5.70;;;2.50;;
64029;SDS011;50277;52.064;4.492;2022-08-21T01:07:28;8.35;;;2.90;;
64029;SDS011;50277;52.064;4.492;2022-08-21T01:09:54;7.70;;;3.15;;
64029;SDS011;50277;52.064;4.492;2022-08-21T01:12:19;12.23;;;3.03;;
64029;SDS011;50277;52.064;4.492;2022-08-21T01:14:44;8.73;;;2.80;;
64029;SDS011;50277;52.064;4.492;2022-08-21T01:17:10;9.77;;;2.47;;
64029;SDS011;50277;52.064;4.492;2022-08-21T01:19:37;8.30;;;2.40;;
64029;SDS011;50277;52.064;4.492;2022-08-21T01:22:02;7.07;;;2.40;;
64029;SDS011;50277;52.064;4.492;2022-08-21T01:24:28;8.50;;;2.58;;
64029;SDS011;50277;52.064;4.492;2022-08-21T01:26:53;11.38;;;3.03;;
64029;SDS011;50277;52.064;4.492;2022-08-21T01:32:08;7.03;;;2.50;;
64029;SDS011;50277;52.064;4.492;2022-08-21T01:34:37;8.85;;;2.42;;
64029;SDS011;50277;52.064;4.492;2022-08-21T01:37:03;6.63;;;2.55;;
64029;SDS011;50277;52.064;4.492;2022-08-21T01:39:29;7.80;;;2.90;;
64029;SDS011;50277;52.064;4.492;2022-08-21T01:41:55;9.25;;;2.80;;
64029;SDS011;50277;52.064;4.492;2022-08-21T01:44:21;5.28;;;2.38;;
64029;SDS011;50277;52.064;4.492;2022-08-21T01:46:47;7.15;;;2.33;;
64029;SDS011;50277;52.064;4.492;2022-08-21T01:49:13;8.38;;;2.85;;
64029;SDS011;50277;52.064;4.492;2022-08-21T01:51:38;8.55;;;2.30;;
64029;SDS011;50277;52.064;4.492;2022-08-21T01:54:04;9.20;;;2.67;;
64029;SDS011;50277;52.064;4.492;2022-08-21T01:56:45;12.27;;;3.22;;
64029;SDS011;50277;52.064;4.492;2022-08-21T01:59:12;6.63;;;2.60;;
64029;SDS011;50277;52.064;4.492;2022-08-21T02:01:38;11.45;;;2.88;;
64029;SDS011;50277;52.064;4.492;2022-08-21T02:04:04;11.15;;;2.83;;
64029;SDS011;50277;52.064;4.492;2022-08-21T02:06:31;6.93;;;2.50;;
64029;SDS011;50277;52.064;4.492;2022-08-21T02:08:56;6.25;;;2.28;;
64029;SDS011;50277;52.064;4.492;2022-08-21T02:11:21;9.10;;;3.08;;
64029;SDS011;50277;52.064;4.492;2022-08-21T02:13:47;6.65;;;2.60;;
64029;SDS011;50277;52.064;4.492;2022-08-21T02:16:12;8.32;;;2.95;;
64029;SDS011;50277;52.064;4.492;2022-08-21T02:18:38;11.32;;;3.22;;
64029;SDS011;50277;52.064;4.492;2022-08-21T02:21:04;7.63;;;2.35;;
64029;SDS011;50277;52.064;4.492;2022-08-21T02:23:30;6.32;;;2.17;;
64029;SDS011;50277;52.064;4.492;2022-08-21T02:26:03;9.82;;;3.30;;
64029;SDS011;50277;52.064;4.492;2022-08-21T02:28:30;6.55;;;2.10;;
64029;SDS011;50277;52.064;4.492;2022-08-21T02:30:56;12.85;;;3.50;;
64029;SDS011;50277;52.064;4.492;2022-08-21T02:33:22;7.60;;;2.10;;
64029;SDS011;50277;52.064;4.492;2022-08-21T02:35:48;9.00;;;3.17;;
64029;SDS011;50277;52.064;4.492;2022-08-21T02:38:14;11.27;;;3.50;;
64029;SDS011;50277;52.064;4.492;2022-08-21T02:40:43;12.75;;;3.70;;
64029;SDS011;50277;52.064;4.492;2022-08-21T02:43:09;11.50;;;3.53;;
64029;SDS011;50277;52.064;4.492;2022-08-21T02:45:35;10.77;;;3.38;;
64029;SDS011;50277;52.064;4.492;2022-08-21T02:48:03;9.45;;;3.95;;
64029;SDS011;50277;52.064;4.492;2022-08-21T02:50:32;12.50;;;4.38;;
64029;SDS011;50277;52.064;4.492;2022-08-21T02:52:59;11.43;;;4.60;;
64029;SDS011;50277;52.064;4.492;2022-08-21T02:55:26;15.73;;;5.72;;
64029;SDS011;50277;52.064;4.492;2022-08-21T02:57:54;14.15;;;5.55;;
64029;SDS011;50277;52.064;4.492;2022-08-21T03:00:21;13.07;;;5.32;;
64029;SDS011;50277;52.064;4.492;2022-08-21T03:02:48;9.98;;;4.68;;
64029;SDS011;50277;52.064;4.492;2022-08-21T03:05:13;11.98;;;5.25;;
64029;SDS011;50277;52.064;4.492;2022-08-21T03:07:40;13.73;;;5.38;;
64029;SDS011;50277;52.064;4.492;2022-08-21T03:10:06;12.95;;;4.88;;
64029;SDS011;50277;52.064;4.492;2022-08-21T03:12:33;11.27;;;4.47;;
64029;SDS011;50277;52.064;4.492;2022-08-21T03:15:00;16.17;;;5.25;;
64029;SDS011;50277;52.064;4.492;2022-08-21T03:17:29;15.30;;;5.30;;
64029;SDS011;50277;52.064;4.492;2022-08-21T03:19:54;14.02;;;5.68;;
64029;SDS011;50277;52.064;4.492;2022-08-21T03:22:20;14.85;;;6.20;;
64029;SDS011;50277;52.064;4.492;2022-08-21T03:24:45;15.82;;;5.15;;
64029;SDS011;50277;52.064;4.492;2022-08-21T03:27:11;14.70;;;5.57;;
64029;SDS011;50277;52.064;4.492;2022-08-21T03:29:38;19.33;;;5.85;;
64029;SDS011;50277;52.064;4.492;2022-08-21T03:32:03;11.55;;;5.20;;
64029;SDS011;50277;52.064;4.492;2022-08-21T03:34:29;14.07;;;5.55;;
64029;SDS011;50277;52.064;4.492;2022-08-21T03:36:54;15.60;;;5.70;;
64029;SDS011;50277;52.064;4.492;2022-08-21T03:39:20;16.25;;;5.72;;
64029;SDS011;50277;52.064;4.492;2022-08-21T03:41:45;17.98;;;5.80;;
64029;SDS011;50277;52.064;4.492;2022-08-21T03:44:12;17.67;;;6.40;;
64029;SDS011;50277;52.064;4.492;2022-08-21T03:46:37;12.32;;;6.15;;
64029;SDS011;50277;52.064;4.492;2022-08-21T03:49:03;16.17;;;6.63;;
64029;SDS011;50277;52.064;4.492;2022-08-21T03:51:29;15.48;;;5.70;;
64029;SDS011;50277;52.064;4.492;2022-08-21T03:53:57;15.77;;;6.03;;
64029;SDS011;50277;52.064;4.492;2022-08-21T03:56:22;10.63;;;5.30;;
64029;SDS011;50277;52.064;4.492;2022-08-21T03:58:48;15.90;;;6.28;;
64029;SDS011;50277;52.064;4.492;2022-08-21T04:01:13;15.82;;;6.10;;
64029;SDS011;50277;52.064;4.492;2022-08-21T04:03:39;11.63;;;5.57;;
64029;SDS011;50277;52.064;4.492;2022-08-21T04:06:04;17.95;;;6.55;;
64029;SDS011;50277;52.064;4.492;2022-08-21T04:08:30;18.85;;;7.18;;
64029;SDS011;50277;52.064;4.492;2022-08-21T04:10:56;19.77;;;6.20;;
64029;SDS011;50277;52.064;4.492;2022-08-21T04:13:23;14.15;;;6.20;;
64029;SDS011;50277;52.064;4.492;2022-08-21T04:15:48;16.52;;;6.45;;
64029;SDS011;50277;52.064;4.492;2022-08-21T04:18:14;16.17;;;6.30;;
64029;SDS011;50277;52.064;4.492;2022-08-21T04:20:40;17.30;;;5.53;;
64029;SDS011;50277;52.064;4.492;2022-08-21T04:23:06;14.73;;;5.32;;
64029;SDS011;50277;52.064;4.492;2022-08-21T04:25:31;10.45;;;5.15;;
64029;SDS011;50277;52.064;4.492;2022-08-21T04:27:57;11.60;;;4.80;;
64029;SDS011;50277;52.064;4.492;2022-08-21T04:30:22;13.52;;;4.07;;
64029;SDS011;50277;52.064;4.492;2022-08-21T04:32:48;12.18;;;3.33;;
64029;SDS011;50277;52.064;4.492;2022-08-21T04:35:15;10.43;;;3.45;;
64029;SDS011;50277;52.064;4.492;2022-08-21T04:40:09;10.03;;;3.03;;
64029;SDS011;50277;52.064;4.492;2022-08-21T04:43:10;14.60;;;3.60;;
64029;SDS011;50277;52.064;4.492;2022-08-21T04:45:34;7.93;;;3.35;;
64029;SDS011;50277;52.064;4.492;2022-08-21T04:48:02;12.88;;;3.65;;
64029;SDS011;50277;52.064;4.492;2022-08-21T04:50:37;11.77;;;3.15;;
64029;SDS011;50277;52.064;4.492;2022-08-21T04:53:10;8.40;;;3.05;;
64029;SDS011;50277;52.064;4.492;2022-08-21T04:55:38;9.85;;;3.78;;
64029;SDS011;50277;52.064;4.492;2022-08-21T04:58:07;8.50;;;3.17;;
64029;SDS011;50277;52.064;4.492;2022-08-21T05:00:33;10.93;;;3.28;;
64029;SDS011;50277;52.064;4.492;2022-08-21T05:03:01;8.45;;;3.05;;
64029;SDS011;50277;52.064;4.492;2022-08-21T05:05:28;8.90;;;2.92;;
64029;SDS011;50277;52.064;4.492;2022-08-21T05:07:54;7.57;;;3.22;;
64029;SDS011;50277;52.064;4.492;2022-08-21T05:10:21;7.68;;;2.65;;
64029;SDS011;50277;52.064;4.492;2022-08-21T05:12:47;13.25;;;3.58;;
64029;SDS011;50277;52.064;4.492;2022-08-21T05:15:13;11.65;;;3.90;;
64029;SDS011;50277;52.064;4.492;2022-08-21T05:17:38;12.70;;;4.47;;
64029;SDS011;50277;52.064;4.492;2022-08-21T05:20:04;10.15;;;3.78;;
64029;SDS011;50277;52.064;4.492;2022-08-21T05:22:30;10.75;;;3.85;;
64029;SDS011;50277;52.064;4.492;2022-08-21T05:24:56;8.95;;;2.83;;
64029;SDS011;50277;52.064;4.492;2022-08-21T05:27:22;13.15;;;4.10;;
64029;SDS011;50277;52.064;4.492;2022-08-21T05:29:49;8.93;;;3.78;;
64029;SDS011;50277;52.064;4.492;2022-08-21T05:32:18;9.73;;;3.83;;
64029;SDS011;50277;52.064;4.492;2022-08-21T05:34:43;12.80;;;4.18;;
64029;SDS011;50277;52.064;4.492;2022-08-21T05:37:10;13.02;;;4.40;;
64029;SDS011;50277;52.064;4.492;2022-08-21T05:39:36;15.60;;;4.47;;
64029;SDS011;50277;52.064;4.492;2022-08-21T05:42:01;8.40;;;4.07;;
64029;SDS011;50277;52.064;4.492;2022-08-21T05:44:26;8.68;;;3.42;;
64029;SDS011;50277;52.064;4.492;2022-08-21T05:46:52;15.50;;;4.15;;
64029;SDS011;50277;52.064;4.492;2022-08-21T05:49:17;7.90;;;3.40;;
64029;SDS011;50277;52.064;4.492;2022-08-21T05:51:43;16.50;;;4.28;;
64029;SDS011;50277;52.064;4.492;2022-08-21T05:54:08;13.82;;;4.68;;
64029;SDS011;50277;52.064;4.492;2022-08-21T05:56:33;10.70;;;3.55;;
64029;SDS011;50277;52.064;4.492;2022-08-21T05:58:59;10.23;;;3.60;;
64029;SDS011;50277;52.064;4.492;2022-08-21T06:01:24;11.50;;;3.72;;
64029;SDS011;50277;52.064;4.492;2022-08-21T06:03:50;10.73;;;3.80;;
64029;SDS011;50277;52.064;4.492;2022-08-21T06:06:15;14.85;;;4.13;;
64029;SDS011;50277;52.064;4.492;2022-08-21T06:08:41;17.63;;;4.45;;
64029;SDS011;50277;52.064;4.492;2022-08-21T06:11:17;11.43;;;4.07;;
64029;SDS011;50277;52.064;4.492;2022-08-21T06:13:43;13.27;;;3.88;;
64029;SDS011;50277;52.064;4.492;2022-08-21T06:16:12;18.05;;;4.43;;
64029;SDS011;50277;52.064;4.492;2022-08-21T06:18:41;11.05;;;3.83;;
64029;SDS011;50277;52.064;4.492;2022-08-21T06:21:07;14.70;;;4.45;;
64029;SDS011;50277;52.064;4.492;2022-08-21T06:23:33;10.52;;;3.50;;
64029;SDS011;50277;52.064;4.492;2022-08-21T06:25:59;12.68;;;3.97;;
64029;SDS011;50277;52.064;4.492;2022-08-21T06:28:28;11.73;;;3.80;;
64029;SDS011;50277;52.064;4.492;2022-08-21T06:30:56;15.00;;;3.95;;
64029;SDS011;50277;52.064;4.492;2022-08-21T06:36:19;14.02;;;3.60;;
64029;SDS011;50277;52.064;4.492;2022-08-21T06:38:45;12.50;;;3.72;;
64029;SDS011;50277;52.064;4.492;2022-08-21T06:41:11;8.45;;;3.55;;
64029;SDS011;50277;52.064;4.492;2022-08-21T06:43:36;10.95;;;3.83;;
64029;SDS011;50277;52.064;4.492;2022-08-21T06:46:02;9.48;;;3.45;;
64029;SDS011;50277;52.064;4.492;2022-08-21T06:48:27;15.68;;;3.90;;
64029;SDS011;50277;52.064;4.492;2022-08-21T06:50:54;12.70;;;3.50;;
64029;SDS011;50277;52.064;4.492;2022-08-21T06:53:21;14.50;;;4.13;;
64029;SDS011;50277;52.064;4.492;2022-08-21T06:55:47;11.77;;;3.38;;
64029;SDS011;50277;52.064;4.492;2022-08-21T06:58:13;9.32;;;3.85;;
64029;SDS011;50277;52.064;4.492;2022-08-21T07:00:39;12.48;;;4.32;;
64029;SDS011;50277;52.064;4.492;2022-08-21T07:03:05;12.65;;;3.75;;
64029;SDS011;50277;52.064;4.492;2022-08-21T07:05:31;6.43;;;3.47;;
64029;SDS011;50277;52.064;4.492;2022-08-21T07:07:56;12.93;;;3.75;;
64029;SDS011;50277;52.064;4.492;2022-08-21T07:10:22;10.23;;;4.10;;
64029;SDS011;50277;52.064;4.492;2022-08-21T07:12:49;9.82;;;4.05;;
64029;SDS011;50277;52.064;4.492;2022-08-21T07:15:15;13.73;;;4.13;;
64029;SDS011;50277;52.064;4.492;2022-08-21T07:17:41;8.38;;;3.60;;
64029;SDS011;50277;52.064;4.492;2022-08-21T07:20:06;13.45;;;4.15;;
64029;SDS011;50277;52.064;4.492;2022-08-21T07:22:32;10.38;;;3.53;;
64029;SDS011;50277;52.064;4.492;2022-08-21T07:24:58;9.55;;;3.42;;
64029;SDS011;50277;52.064;4.492;2022-08-21T07:27:23;10.48;;;4.15;;
64029;SDS011;50277;52.064;4.492;2022-08-21T07:29:48;9.27;;;3.40;;
64029;SDS011;50277;52.064;4.492;2022-08-21T07:32:14;15.70;;;3.85;;
64029;SDS011;50277;52.064;4.492;2022-08-21T07:34:40;11.13;;;3.58;;
64029;SDS011;50277;52.064;4.492;2022-08-21T07:37:05;9.43;;;3.40;;
64029;SDS011;50277;52.064;4.492;2022-08-21T07:39:31;7.60;;;3.42;;
64029;SDS011;50277;52.064;4.492;2022-08-21T07:41:56;11.85;;;3.55;;
64029;SDS011;50277;52.064;4.492;2022-08-21T07:44:21;16.58;;;4.35;;
64029;SDS011;50277;52.064;4.492;2022-08-21T07:46:47;11.02;;;3.50;;
64029;SDS011;50277;52.064;4.492;2022-08-21T07:49:12;12.95;;;4.60;;
64029;SDS011;50277;52.064;4.492;2022-08-21T07:51:37;9.98;;;3.65;;
64029;SDS011;50277;52.064;4.492;2022-08-21T07:54:03;9.95;;;3.58;;
64029;SDS011;50277;52.064;4.492;2022-08-21T07:56:30;11.02;;;4.55;;
64029;SDS011;50277;52.064;4.492;2022-08-21T07:58:55;11.25;;;3.85;;
64029;SDS011;50277;52.064;4.492;2022-08-21T08:01:22;12.05;;;4.38;;
64029;SDS011;50277;52.064;4.492;2022-08-21T08:03:48;11.35;;;3.97;;
64029;SDS011;50277;52.064;4.492;2022-08-21T08:06:13;14.70;;;4.43;;
64029;SDS011;50277;52.064;4.492;2022-08-21T08:08:39;12.40;;;4.28;;
64029;SDS011;50277;52.064;4.492;2022-08-21T08:11:05;12.05;;;3.38;;
64029;SDS011;50277;52.064;4.492;2022-08-21T08:13:31;10.75;;;3.50;;
64029;SDS011;50277;52.064;4.492;2022-08-21T08:15:56;8.05;;;3.08;;
64029;SDS011;50277;52.064;4.492;2022-08-21T08:18:22;9.15;;;3.28;;
64029;SDS011;50277;52.064;4.492;2022-08-21T08:20:47;9.73;;;3.75;;
64029;SDS011;50277;52.064;4.492;2022-08-21T08:23:13;10.55;;;3.25;;
64029;SDS011;50277;52.064;4.492;2022-08-21T08:25:38;8.93;;;2.97;;
64029;SDS011;50277;52.064;4.492;2022-08-21T08:28:05;11.00;;;3.45;;
64029;SDS011;50277;52.064;4.492;2022-08-21T08:30:31;13.10;;;3.90;;
64029;SDS011;50277;52.064;4.492;2022-08-21T08:32:56;8.70;;;2.90;;
64029;SDS011;50277;52.064;4.492;2022-08-21T08:35:22;9.05;;;3.20;;
64029;SDS011;50277;52.064;4.492;2022-08-21T08:37:48;9.73;;;3.28;;
64029;SDS011;50277;52.064;4.492;2022-08-21T08:40:14;8.82;;;2.95;;
64029;SDS011;50277;52.064;4.492;2022-08-21T08:42:45;10.90;;;3.63;;
64029;SDS011;50277;52.064;4.492;2022-08-21T08:45:14;11.35;;;3.40;;
64029;SDS011;50277;52.064;4.492;2022-08-21T08:47:43;9.15;;;3.13;;
64029;SDS011;50277;52.064;4.492;2022-08-21T08:50:19;8.30;;;2.78;;
64029;SDS011;50277;52.064;4.492;2022-08-21T08:53:06;9.90;;;2.75;;
64029;SDS011;50277;52.064;4.492;2022-08-21T08:55:37;12.57;;;3.30;;
64029;SDS011;50277;52.064;4.492;2022-08-21T08:58:05;13.95;;;2.83;;
64029;SDS011;50277;52.064;4.492;2022-08-21T09:00:31;8.70;;;2.80;;
64029;SDS011;50277;52.064;4.492;2022-08-21T09:02:57;8.48;;;3.13;;
64029;SDS011;50277;52.064;4.492;2022-08-21T09:05:27;5.82;;;2.55;;
64029;SDS011;50277;52.064;4.492;2022-08-21T09:13:34;4.18;;;2.00;;
64029;SDS011;50277;52.064;4.492;2022-08-21T09:26:29;8.57;;;2.63;;
64029;SDS011;50277;52.064;4.492;2022-08-21T09:28:58;4.88;;;2.10;;
64029;SDS011;50277;52.064;4.492;2022-08-21T09:31:27;9.93;;;2.70;;
64029;SDS011;50277;52.064;4.492;2022-08-21T09:36:25;12.85;;;3.17;;
64029;SDS011;50277;52.064;4.492;2022-08-21T09:39:10;8.05;;;2.28;;
64029;SDS011;50277;52.064;4.492;2022-08-21T09:41:38;8.90;;;2.40;;
64029;SDS011;50277;52.064;4.492;2022-08-21T09:44:05;5.90;;;2.17;;
64029;SDS011;50277;52.064;4.492;2022-08-21T09:48:59;8.25;;;2.85;;
64029;SDS011;50277;52.064;4.492;2022-08-21T09:54:13;8.20;;;2.60;;
64029;SDS011;50277;52.064;4.492;2022-08-21T09:59:41;7.97;;;2.80;;
64029;SDS011;50277;52.064;4.492;2022-08-21T10:02:41;7.20;;;2.50;;
64029;SDS011;50277;52.064;4.492;2022-08-21T10:05:06;12.15;;;3.20;;
64029;SDS011;50277;52.064;4.492;2022-08-21T10:07:36;8.38;;;2.55;;
64029;SDS011;50277;52.064;4.492;2022-08-21T10:12:32;6.68;;;2.30;;
64029;SDS011;50277;52.064;4.492;2022-08-21T10:20:10;8.10;;;2.33;;
64029;SDS011;50277;52.064;4.492;2022-08-21T10:26:02;8.07;;;2.55;;
64029;SDS011;50277;52.064;4.492;2022-08-21T10:36:50;11.30;;;2.80;;
64029;SDS011;50277;52.064;4.492;2022-08-21T10:44:48;8.43;;;2.40;;
64029;SDS011;50277;52.064;4.492;2022-08-21T10:55:39;16.95;;;2.88;;
64029;SDS011;50277;52.064;4.492;2022-08-21T10:58:10;7.90;;;2.42;;
64029;SDS011;50277;52.064;4.492;2022-08-21T11:00:50;8.10;;;2.65;;
64029;SDS011;50277;52.064;4.492;2022-08-21T11:06:06;6.05;;;2.28;;
64029;SDS011;50277;52.064;4.492;2022-08-21T11:08:39;7.50;;;2.50;;
64029;SDS011;50277;52.064;4.492;2022-08-21T11:14:00;11.38;;;2.58;;
64029;SDS011;50277;52.064;4.492;2022-08-21T11:16:33;5.00;;;1.90;;
64029;SDS011;50277;52.064;4.492;2022-08-21T11:19:17;4.10;;;2.03;;
64029;SDS011;50277;52.064;4.492;2022-08-21T11:27:37;6.37;;;2.23;;
64029;SDS011;50277;52.064;4.492;2022-08-21T11:30:06;9.30;;;2.67;;
64029;SDS011;50277;52.064;4.492;2022-08-21T11:32:54;8.68;;;2.00;;
64029;SDS011;50277;52.064;4.492;2022-08-21T11:38:57;6.32;;;1.88;;
64029;SDS011;50277;52.064;4.492;2022-08-21T11:43:54;9.87;;;2.43;;
64029;SDS011;50277;52.064;4.492;2022-08-21T11:49:21;8.18;;;2.33;;
64029;SDS011;50277;52.064;4.492;2022-08-21T11:54:57;7.75;;;2.83;;
64029;SDS011;50277;52.064;4.492;2022-08-21T11:57:25;6.32;;;2.40;;
64029;SDS011;50277;52.064;4.492;2022-08-21T11:59:59;6.03;;;2.08;;
64029;SDS011;50277;52.064;4.492;2022-08-21T12:02:33;8.20;;;2.10;;
64029;SDS011;50277;52.064;4.492;2022-08-21T12:05:06;7.60;;;2.03;;
64029;SDS011;50277;52.064;4.492;2022-08-21T12:07:40;7.25;;;1.98;;
64029;SDS011;50277;52.064;4.492;2022-08-21T12:10:09;5.70;;;2.13;;
64029;SDS011;50277;52.064;4.492;2022-08-21T12:12:37;5.60;;;2.10;;
64029;SDS011;50277;52.064;4.492;2022-08-21T12:18:02;5.68;;;2.13;;
64029;SDS011;50277;52.064;4.492;2022-08-21T12:25:37;4.10;;;1.88;;
64029;SDS011;50277;52.064;4.492;2022-08-21T12:28:11;3.95;;;1.60;;
64029;SDS011;50277;52.064;4.492;2022-08-21T12:30:40;3.28;;;1.80;;
64029;SDS011;50277;52.064;4.492;2022-08-21T12:35:44;3.85;;;1.70;;
64029;SDS011;50277;52.064;4.492;2022-08-21T12:38:18;5.47;;;1.90;;
64029;SDS011;50277;52.064;4.492;2022-08-21T12:43:59;6.95;;;1.83;;
64029;SDS011;50277;52.064;4.492;2022-08-21T12:47:20;5.47;;;2.03;;
64029;SDS011;50277;52.064;4.492;2022-08-21T12:49:34;6.13;;;2.38;;
64029;SDS011;50277;52.064;4.492;2022-08-21T12:52:02;5.35;;;2.17;;
64029;SDS011;50277;52.064;4.492;2022-08-21T12:54:39;9.25;;;2.33;;
64029;SDS011;50277;52.064;4.492;2022-08-21T12:57:07;6.03;;;2.00;;
64029;SDS011;50277;52.064;4.492;2022-08-21T12:59:36;6.38;;;2.40;;
64029;SDS011;50277;52.064;4.492;2022-08-21T13:02:03;5.97;;;2.20;;
64029;SDS011;50277;52.064;4.492;2022-08-21T13:04:38;3.65;;;1.88;;
64029;SDS011;50277;52.064;4.492;2022-08-21T13:07:06;2.80;;;1.83;;
64029;SDS011;50277;52.064;4.492;2022-08-21T13:09:35;6.55;;;2.13;;
64029;SDS011;50277;52.064;4.492;2022-08-21T13:12:01;6.07;;;2.10;;
64029;SDS011;50277;52.064;4.492;2022-08-21T13:14:37;7.63;;;2.10;;
64029;SDS011;50277;52.064;4.492;2022-08-21T13:17:05;7.35;;;1.85;;
64029;SDS011;50277;52.064;4.492;2022-08-21T13:19:32;7.22;;;2.22;;
64029;SDS011;50277;52.064;4.492;2022-08-21T13:21:58;5.43;;;2.38;;
64029;SDS011;50277;52.064;4.492;2022-08-21T13:24:25;6.13;;;2.00;;
64029;SDS011;50277;52.064;4.492;2022-08-21T13:26:54;3.63;;;1.77;;
64029;SDS011;50277;52.064;4.492;2022-08-21T13:29:21;4.55;;;1.90;;
64029;SDS011;50277;52.064;4.492;2022-08-21T13:31:50;10.10;;;2.25;;
64029;SDS011;50277;52.064;4.492;2022-08-21T13:34:33;7.72;;;2.33;;
64029;SDS011;50277;52.064;4.492;2022-08-21T13:37:00;5.40;;;2.33;;
64029;SDS011;50277;52.064;4.492;2022-08-21T13:39:28;7.72;;;2.13;;
64029;SDS011;50277;52.064;4.492;2022-08-21T13:41:57;5.72;;;2.05;;
64029;SDS011;50277;52.064;4.492;2022-08-21T13:44:32;7.20;;;1.90;;
64029;SDS011;50277;52.064;4.492;2022-08-21T13:46:58;5.00;;;2.20;;
64029;SDS011;50277;52.064;4.492;2022-08-21T13:49:27;5.53;;;2.05;;
64029;SDS011;50277;52.064;4.492;2022-08-21T13:51:55;6.15;;;1.98;;
64029;SDS011;50277;52.064;4.492;2022-08-21T13:54:22;4.20;;;1.88;;
64029;SDS011;50277;52.064;4.492;2022-08-21T13:56:58;5.63;;;2.13;;
64029;SDS011;50277;52.064;4.492;2022-08-21T13:59:28;7.75;;;2.20;;
64029;SDS011;50277;52.064;4.492;2022-08-21T14:02:01;4.93;;;2.00;;
64029;SDS011;50277;52.064;4.492;2022-08-21T14:04:50;6.30;;;2.40;;
64029;SDS011;50277;52.064;4.492;2022-08-21T14:07:24;5.75;;;2.40;;
64029;SDS011;50277;52.064;4.492;2022-08-21T14:09:54;7.45;;;2.25;;
64029;SDS011;50277;52.064;4.492;2022-08-21T14:12:32;6.43;;;2.30;;
64029;SDS011;50277;52.064;4.492;2022-08-21T14:15:03;6.22;;;2.47;;
64029;SDS011;50277;52.064;4.492;2022-08-21T14:19:55;6.43;;;2.40;;
64029;SDS011;50277;52.064;4.492;2022-08-21T14:22:28;6.22;;;2.35;;
64029;SDS011;50277;52.064;4.492;2022-08-21T14:25:06;7.53;;;2.13;;
64029;SDS011;50277;52.064;4.492;2022-08-21T14:27:48;6.00;;;2.65;;
64029;SDS011;50277;52.064;4.492;2022-08-21T14:30:37;6.00;;;2.30;;
64029;SDS011;50277;52.064;4.492;2022-08-21T14:33:03;10.02;;;2.90;;
64029;SDS011;50277;52.064;4.492;2022-08-21T14:35:29;7.85;;;2.80;;
64029;SDS011;50277;52.064;4.492;2022-08-21T14:37:55;7.13;;;3.00;;
64029;SDS011;50277;52.064;4.492;2022-08-21T14:40:22;8.05;;;2.88;;
64029;SDS011;50277;52.064;4.492;2022-08-21T14:42:48;9.43;;;2.80;;
64029;SDS011;50277;52.064;4.492;2022-08-21T14:45:18;7.30;;;2.60;;
64029;SDS011;50277;52.064;4.492;2022-08-21T14:47:53;8.30;;;2.85;;
64029;SDS011;50277;52.064;4.492;2022-08-21T14:50:20;7.70;;;2.33;;
64029;SDS011;50277;52.064;4.492;2022-08-21T14:52:45;8.98;;;2.88;;
64029;SDS011;50277;52.064;4.492;2022-08-21T14:55:11;6.45;;;2.33;;
64029;SDS011;50277;52.064;4.492;2022-08-21T14:57:41;7.90;;;2.47;;
64029;SDS011;50277;52.064;4.492;2022-08-21T15:00:11;8.15;;;2.28;;
64029;SDS011;50277;52.064;4.492;2022-08-21T15:02:39;8.63;;;2.92;;
64029;SDS011;50277;52.064;4.492;2022-08-21T15:05:04;7.03;;;2.83;;
64029;SDS011;50277;52.064;4.492;2022-08-21T15:07:30;5.47;;;2.35;;
64029;SDS011;50277;52.064;4.492;2022-08-21T15:09:55;9.77;;;3.65;;
64029;SDS011;50277;52.064;4.492;2022-08-21T15:12:21;10.70;;;3.40;;
64029;SDS011;50277;52.064;4.492;2022-08-21T15:14:46;10.65;;;3.05;;
64029;SDS011;50277;52.064;4.492;2022-08-21T15:17:12;7.93;;;2.72;;
64029;SDS011;50277;52.064;4.492;2022-08-21T15:19:37;10.45;;;2.80;;
64029;SDS011;50277;52.064;4.492;2022-08-21T15:22:03;6.95;;;2.72;;
64029;SDS011;50277;52.064;4.492;2022-08-21T15:24:29;7.38;;;2.53;;
64029;SDS011;50277;52.064;4.492;2022-08-21T15:26:55;7.97;;;2.67;;
64029;SDS011;50277;52.064;4.492;2022-08-21T15:29:21;7.32;;;2.85;;
64029;SDS011;50277;52.064;4.492;2022-08-21T15:34:53;6.55;;;2.63;;
64029;SDS011;50277;52.064;4.492;2022-08-21T15:37:20;15.40;;;3.40;;
64029;SDS011;50277;52.064;4.492;2022-08-21T15:39:45;8.15;;;2.90;;
64029;SDS011;50277;52.064;4.492;2022-08-21T15:42:11;6.78;;;2.78;;
64029;SDS011;50277;52.064;4.492;2022-08-21T15:44:38;7.47;;;2.67;;
64029;SDS011;50277;52.064;4.492;2022-08-21T15:47:05;8.63;;;2.40;;
64029;SDS011;50277;52.064;4.492;2022-08-21T15:49:31;6.18;;;2.03;;
64029;SDS011;50277;52.064;4.492;2022-08-21T15:51:56;11.52;;;2.85;;
64029;SDS011;50277;52.064;4.492;2022-08-21T15:54:21;7.53;;;2.60;;
64029;SDS011;50277;52.064;4.492;2022-08-21T15:56:47;13.40;;;3.25;;
64029;SDS011;50277;52.064;4.492;2022-08-21T15:59:15;12.02;;;3.25;;
64029;SDS011;50277;52.064;4.492;2022-08-21T16:01:42;10.85;;;3.28;;
64029;SDS011;50277;52.064;4.492;2022-08-21T16:04:08;8.48;;;2.55;;
64029;SDS011;50277;52.064;4.492;2022-08-21T16:06:34;8.43;;;2.70;;
64029;SDS011;50277;52.064;4.492;2022-08-21T16:08:59;5.80;;;2.60;;
64029;SDS011;50277;52.064;4.492;2022-08-21T16:11:25;7.07;;;2.60;;
64029;SDS011;50277;52.064;4.492;2022-08-21T16:13:51;8.00;;;3.00;;
64029;SDS011;50277;52.064;4.492;2022-08-21T16:16:17;8.95;;;2.50;;
64029;SDS011;50277;52.064;4.492;2022-08-21T16:18:44;9.20;;;2.90;;
64029;SDS011;50277;52.064;4.492;2022-08-21T16:21:10;6.65;;;2.47;;
64029;SDS011;50277;52.064;4.492;2022-08-21T16:23:36;11.00;;;2.83;;
64029;SDS011;50277;52.064;4.492;2022-08-21T16:26:03;5.38;;;2.30;;
64029;SDS011;50277;52.064;4.492;2022-08-21T16:28:30;6.90;;;3.08;;
64029;SDS011;50277;52.064;4.492;2022-08-21T16:30:56;8.18;;;2.53;;
64029;SDS011;50277;52.064;4.492;2022-08-21T16:35:57;6.20;;;3.08;;
64029;SDS011;50277;52.064;4.492;2022-08-21T16:38:24;7.85;;;2.38;;
64029;SDS011;50277;52.064;4.492;2022-08-21T16:40:50;11.63;;;4.00;;